Time;durP1;ratioP1;P1;durP2;ratioP2;P2;SDS_P1;SDS_P2;PMS_P1;PMS_P2;Temp;Humidity;BMP_temperature;BMP_pressure;BME280_temperature;BME280_humidity;BME280_pressure;Samples;Min_cycle;Max_cycle;Signal;HPM_P1;HPM_P2
2021/07/16 00:02:41;;;;;;;20.35;7.93;;;;;;;;;;5073060;28;20371;-63
2021/07/16 00:05:27;;;;;;;19.33;7.78;;;;;;;;;;5073486;28;20193;-63
2021/07/16 00:08:12;;;;;;;20.05;7.22;;;;;;;;;;5065291;28;20117;-62
2021/07/16 00:10:57;;;;;;;21.35;9.02;;;;;;;;;;5073623;28;20147;-62
2021/07/16 00:13:43;;;;;;;17.58;7.25;;;;;;;;;;5072631;28;20162;-62
2021/07/16 00:16:28;;;;;;;17.75;7.05;;;;;;;;;;5073032;28;20102;-62
2021/07/16 00:19:16;;;;;;;22.00;7.70;;;;;;;;;;5071543;28;20044;-62
2021/07/16 00:22:01;;;;;;;18.65;7.63;;;;;;;;;;5064648;28;20041;-62
2021/07/16 00:24:47;;;;;;;15.85;6.95;;;;;;;;;;5054217;28;20049;-62
2021/07/16 00:27:32;;;;;;;19.77;7.38;;;;;;;;;;5049461;28;20082;-62
2021/07/16 00:30:18;;;;;;;21.92;7.85;;;;;;;;;;5058806;28;20056;-63
2021/07/16 00:33:04;;;;;;;19.77;8.73;;;;;;;;;;5055307;28;20052;-62
2021/07/16 00:35:49;;;;;;;17.42;7.13;;;;;;;;;;5054920;28;20060;-62
2021/07/16 00:38:34;;;;;;;23.98;8.07;;;;;;;;;;5073340;28;20053;-63
2021/07/16 00:41:20;;;;;;;20.40;6.85;;;;;;;;;;5073077;28;20049;-62
2021/07/16 00:44:06;;;;;;;21.50;7.55;;;;;;;;;;5053816;28;20055;-62
2021/07/16 00:46:51;;;;;;;19.20;6.47;;;;;;;;;;5054849;28;20495;-62
2021/07/16 00:49:37;;;;;;;22.77;7.53;;;;;;;;;;5068378;28;20183;-62
2021/07/16 00:52:22;;;;;;;31.13;7.35;;;;;;;;;;5069136;28;20051;-63
2021/07/16 00:55:08;;;;;;;17.92;7.45;;;;;;;;;;5072257;28;20052;-63
2021/07/16 00:57:53;;;;;;;21.88;7.40;;;;;;;;;;5064584;28;20145;-63
2021/07/16 01:00:39;;;;;;;20.75;6.50;;;;;;;;;;5048327;28;20048;-63
2021/07/16 01:03:24;;;;;;;18.35;7.43;;;;;;;;;;5059149;28;20402;-63
2021/07/16 01:06:10;;;;;;;18.50;7.28;;;;;;;;;;5069490;28;20406;-63
2021/07/16 01:08:55;;;;;;;22.00;8.02;;;;;;;;;;5054879;28;20433;-63
2021/07/16 01:11:40;;;;;;;19.20;7.38;;;;;;;;;;5068833;28;20102;-63
2021/07/16 01:14:26;;;;;;;24.52;8.48;;;;;;;;;;5073294;28;20414;-64
2021/07/16 01:17:11;;;;;;;18.02;8.20;;;;;;;;;;5062839;28;20116;-64
2021/07/16 01:19:56;;;;;;;23.13;8.43;;;;;;;;;;5043841;28;20399;-64
2021/07/16 01:22:43;;;;;;;19.25;7.63;;;;;;;;;;5040055;28;20067;-64
2021/07/16 01:25:29;;;;;;;24.52;8.18;;;;;;;;;;5067280;28;20171;-64
2021/07/16 01:28:15;;;;;;;16.25;6.97;;;;;;;;;;5067899;28;20506;-63
2021/07/16 01:31:00;;;;;;;20.77;8.95;;;;;;;;;;5066868;28;20102;-63
2021/07/16 01:33:45;;;;;;;20.88;7.72;;;;;;;;;;5036601;28;20053;-63
2021/07/16 01:36:31;;;;;;;27.80;7.40;;;;;;;;;;5054483;28;20055;-63
2021/07/16 01:39:16;;;;;;;25.65;7.75;;;;;;;;;;5046110;28;20037;-63
2021/07/16 01:42:07;;;;;;;20.92;8.00;;;;;;;;;;5071169;28;20501;-63
2021/07/16 01:44:52;;;;;;;26.33;8.13;;;;;;;;;;5055120;28;20063;-63
2021/07/16 01:47:38;;;;;;;25.77;7.78;;;;;;;;;;5069085;28;20490;-63
2021/07/16 01:50:23;;;;;;;24.00;7.32;;;;;;;;;;5069713;28;20071;-63
2021/07/16 01:53:09;;;;;;;23.70;7.40;;;;;;;;;;5066076;28;20052;-63
2021/07/16 01:55:54;;;;;;;19.45;6.18;;;;;;;;;;5060092;28;20052;-63
2021/07/16 01:58:40;;;;;;;22.50;6.15;;;;;;;;;;5062696;28;20191;-63
2021/07/16 02:01:25;;;;;;;22.10;7.00;;;;;;;;;;5063726;28;20500;-63
2021/07/16 02:04:11;;;;;;;14.68;6.38;;;;;;;;;;5061031;28;20394;-63
2021/07/16 02:06:57;;;;;;;21.23;5.70;;;;;;;;;;5068660;28;20037;-63
2021/07/16 02:09:42;;;;;;;20.77;6.60;;;;;;;;;;5065948;28;20054;-63
2021/07/16 02:12:28;;;;;;;18.80;7.22;;;;;;;;;;5067130;28;20824;-63
2021/07/16 02:15:17;;;;;;;19.42;6.57;;;;;;;;;;5068636;28;20137;-63
2021/07/16 02:18:02;;;;;;;21.48;6.97;;;;;;;;;;5063964;28;20041;-63
2021/07/16 02:20:48;;;;;;;18.30;7.28;;;;;;;;;;5067150;28;20498;-63
2021/07/16 02:23:33;;;;;;;24.13;6.65;;;;;;;;;;5053163;28;20045;-63
2021/07/16 02:26:18;;;;;;;18.55;6.90;;;;;;;;;;5067781;28;20044;-63
2021/07/16 02:29:05;;;;;;;18.08;6.50;;;;;;;;;;5069586;28;20037;-64
2021/07/16 02:31:51;;;;;;;18.02;6.13;;;;;;;;;;5062593;28;20116;-64
2021/07/16 02:34:36;;;;;;;21.45;6.60;;;;;;;;;;5064743;28;20049;-63
2021/07/16 02:37:21;;;;;;;22.23;6.10;;;;;;;;;;5064868;28;20491;-63
2021/07/16 02:40:07;;;;;;;21.20;6.88;;;;;;;;;;5052706;28;20052;-63
2021/07/16 02:42:53;;;;;;;17.85;6.43;;;;;;;;;;5063734;28;20386;-63
2021/07/16 02:45:38;;;;;;;23.17;7.25;;;;;;;;;;5068945;28;20181;-63
2021/07/16 02:48:25;;;;;;;20.08;6.55;;;;;;;;;;5069271;28;20524;-63
2021/07/16 02:51:10;;;;;;;17.90;5.82;;;;;;;;;;5052230;28;20059;-63
2021/07/16 02:53:56;;;;;;;18.88;7.22;;;;;;;;;;5069393;28;20048;-63
2021/07/16 02:56:41;;;;;;;25.15;7.07;;;;;;;;;;5065392;28;20090;-63
2021/07/16 02:59:27;;;;;;;21.33;7.38;;;;;;;;;;5061782;28;20036;-64
2021/07/16 03:02:12;;;;;;;19.05;7.75;;;;;;;;;;5061099;28;20098;-64
2021/07/16 03:04:58;;;;;;;23.67;7.13;;;;;;;;;;5068220;28;20099;-62
2021/07/16 03:07:43;;;;;;;21.73;6.22;;;;;;;;;;5068685;28;20044;-62
2021/07/16 03:10:32;;;;;;;20.52;6.40;;;;;;;;;;5071596;28;20145;-63
2021/07/16 03:13:18;;;;;;;23.10;6.78;;;;;;;;;;5065014;28;20522;-63
2021/07/16 03:16:03;;;;;;;19.00;5.93;;;;;;;;;;5066702;28;20085;-62
2021/07/16 03:18:48;;;;;;;25.15;6.10;;;;;;;;;;5059615;28;20049;-62
2021/07/16 03:21:34;;;;;;;24.15;6.45;;;;;;;;;;5054171;28;20179;-62
2021/07/16 03:24:20;;;;;;;18.67;5.85;;;;;;;;;;5051308;28;20602;-63
2021/07/16 03:27:05;;;;;;;22.48;7.40;;;;;;;;;;5042582;28;20415;-63
2021/07/16 03:29:51;;;;;;;24.90;6.63;;;;;;;;;;5064618;28;20049;-63
2021/07/16 03:32:36;;;;;;;23.42;6.07;;;;;;;;;;5069195;28;20045;-63
2021/07/16 03:35:22;;;;;;;23.25;6.15;;;;;;;;;;5058503;28;20049;-63
2021/07/16 03:38:08;;;;;;;20.80;6.35;;;;;;;;;;5068837;28;20514;-63
2021/07/16 03:40:55;;;;;;;21.63;7.65;;;;;;;;;;5065209;28;20041;-63
2021/07/16 03:43:40;;;;;;;16.70;5.35;;;;;;;;;;5051525;28;20045;-63
2021/07/16 03:46:27;;;;;;;19.67;6.07;;;;;;;;;;5067565;28;20529;-63
2021/07/16 03:49:13;;;;;;;20.55;6.40;;;;;;;;;;5064990;28;20052;-63
2021/07/16 03:51:58;;;;;;;20.65;5.80;;;;;;;;;;5067036;28;20156;-63
2021/07/16 03:54:44;;;;;;;29.67;7.00;;;;;;;;;;5068835;28;20037;-64
2021/07/16 03:57:29;;;;;;;20.65;5.90;;;;;;;;;;5065341;28;20055;-63
2021/07/16 04:00:15;;;;;;;31.02;6.20;;;;;;;;;;5069576;28;20130;-63
2021/07/16 04:03:02;;;;;;;24.95;6.53;;;;;;;;;;5071376;28;20045;-63
2021/07/16 04:05:47;;;;;;;20.48;5.60;;;;;;;;;;5067234;28;20044;-63
2021/07/16 04:08:37;;;;;;;19.48;5.78;;;;;;;;;;5067068;28;20501;-63
2021/07/16 04:11:23;;;;;;;18.80;5.68;;;;;;;;;;5069003;28;20139;-63
2021/07/16 04:14:08;;;;;;;21.13;5.50;;;;;;;;;;5128030;22;20143;-64
2021/07/16 04:16:54;;;;;;;21.77;5.78;;;;;;;;;;5076317;28;20051;-67
2021/07/16 04:19:39;;;;;;;28.17;6.63;;;;;;;;;;5087342;28;20055;-65
2021/07/16 04:22:25;;;;;;;18.88;5.40;;;;;;;;;;5088443;28;20062;-64
2021/07/16 04:25:14;;;;;;;21.25;6.00;;;;;;;;;;5091488;28;20486;-64
2021/07/16 04:28:00;;;;;;;25.80;6.65;;;;;;;;;;5090153;28;20570;-66
2021/07/16 04:30:46;;;;;;;27.95;6.25;;;;;;;;;;5090835;28;20055;-65
2021/07/16 04:33:31;;;;;;;17.48;5.10;;;;;;;;;;5105159;28;20052;-65
2021/07/16 04:36:16;;;;;;;19.67;5.60;;;;;;;;;;5075766;28;20568;-65
2021/07/16 04:39:01;;;;;;;20.77;4.88;;;;;;;;;;5087280;28;20064;-65
2021/07/16 04:41:47;;;;;;;21.55;6.30;;;;;;;;;;5093695;28;20136;-65
2021/07/16 04:44:33;;;;;;;23.00;6.88;;;;;;;;;;5092179;28;20507;-65
2021/07/16 04:47:18;;;;;;;28.70;6.30;;;;;;;;;;5090159;28;20501;-65
2021/07/16 04:50:03;;;;;;;26.83;6.88;;;;;;;;;;5091637;28;20177;-66
2021/07/16 04:52:50;;;;;;;23.30;5.70;;;;;;;;;;5102396;28;20044;-67
2021/07/16 04:55:36;;;;;;;24.50;6.35;;;;;;;;;;5090861;28;20130;-66
2021/07/16 04:58:21;;;;;;;27.58;5.80;;;;;;;;;;5087790;28;20101;-64
2021/07/16 05:01:07;;;;;;;22.38;5.53;;;;;;;;;;5089621;28;20452;-65
2021/07/16 05:03:53;;;;;;;26.45;6.50;;;;;;;;;;5091327;28;20040;-65
2021/07/16 05:06:38;;;;;;;21.90;6.10;;;;;;;;;;5093381;28;20066;-64
2021/07/16 05:09:24;;;;;;;21.27;5.68;;;;;;;;;;5093529;28;20044;-66
2021/07/16 05:12:12;;;;;;;29.02;7.22;;;;;;;;;;5088631;28;20140;-66
2021/07/16 05:14:58;;;;;;;25.02;6.32;;;;;;;;;;5086683;28;20059;-66
2021/07/16 05:17:43;;;;;;;27.75;6.22;;;;;;;;;;5092179;28;20043;-64
2021/07/16 05:20:29;;;;;;;27.83;6.30;;;;;;;;;;5092036;28;20571;-65
2021/07/16 05:23:14;;;;;;;26.45;6.00;;;;;;;;;;5091259;28;20063;-67
2021/07/16 05:26:00;;;;;;;24.38;5.93;;;;;;;;;;5090570;28;20170;-66
2021/07/16 05:28:47;;;;;;;24.05;6.78;;;;;;;;;;5090059;28;20134;-65
2021/07/16 05:31:32;;;;;;;20.20;6.07;;;;;;;;;;5090170;28;20044;-65
2021/07/16 05:34:18;;;;;;;22.15;7.07;;;;;;;;;;5092028;28;20368;-65
2021/07/16 05:37:03;;;;;;;22.42;5.82;;;;;;;;;;5092301;28;20070;-65
2021/07/16 05:39:48;;;;;;;28.88;6.15;;;;;;;;;;5091814;28;20051;-66
2021/07/16 05:42:35;;;;;;;27.02;5.53;;;;;;;;;;5089742;28;20440;-65
2021/07/16 05:45:27;;;;;;;25.20;6.90;;;;;;;;;;5091967;28;20076;-67
2021/07/16 05:48:12;;;;;;;21.65;5.72;;;;;;;;;;5090576;28;20398;-65
2021/07/16 05:50:58;;;;;;;24.35;7.40;;;;;;;;;;5090757;28;20125;-65
2021/07/16 05:53:44;;;;;;;24.20;5.95;;;;;;;;;;5088918;28;20515;-66
2021/07/16 05:56:32;;;;;;;20.05;6.50;;;;;;;;;;5089941;28;20105;-66
2021/07/16 05:59:20;;;;;;;29.25;7.15;;;;;;;;;;5086384;28;20044;-67
2021/07/16 06:02:05;;;;;;;26.83;6.28;;;;;;;;;;5087579;28;20067;-66
2021/07/16 06:04:51;;;;;;;19.80;5.60;;;;;;;;;;5087565;28;20545;-67
2021/07/16 06:07:36;;;;;;;26.10;5.85;;;;;;;;;;5079852;28;20114;-67
2021/07/16 06:10:22;;;;;;;24.20;6.03;;;;;;;;;;5080061;28;20045;-67
2021/07/16 06:13:07;;;;;;;21.80;5.88;;;;;;;;;;5089232;28;20047;-67
2021/07/16 06:15:53;;;;;;;28.30;6.45;;;;;;;;;;5090073;28;20124;-66
2021/07/16 06:18:39;;;;;;;21.90;5.32;;;;;;;;;;5075594;28;20516;-67
2021/07/16 06:21:24;;;;;;;27.35;5.75;;;;;;;;;;5060906;28;20048;-66
2021/07/16 06:24:10;;;;;;;32.75;6.40;;;;;;;;;;5090140;28;20051;-66
2021/07/16 06:26:56;;;;;;;23.58;6.07;;;;;;;;;;5090915;28;20174;-66
2021/07/16 06:29:42;;;;;;;26.85;6.30;;;;;;;;;;5088066;28;20047;-67
2021/07/16 06:32:27;;;;;;;27.50;7.15;;;;;;;;;;5073051;28;20036;-65
2021/07/16 06:35:13;;;;;;;26.30;6.50;;;;;;;;;;5089650;28;20047;-67
2021/07/16 06:37:58;;;;;;;22.20;6.10;;;;;;;;;;5084291;28;20044;-68
2021/07/16 06:40:43;;;;;;;30.00;6.32;;;;;;;;;;5081368;28;20121;-68
2021/07/16 06:43:29;;;;;;;25.10;6.70;;;;;;;;;;5091113;28;20387;-68
2021/07/16 06:46:16;;;;;;;28.40;6.03;;;;;;;;;;5090500;28;20494;-67
2021/07/16 06:49:01;;;;;;;20.73;5.35;;;;;;;;;;5092262;28;20048;-68
2021/07/16 06:51:47;;;;;;;24.40;6.97;;;;;;;;;;5089159;28;20052;-68
2021/07/16 06:54:32;;;;;;;27.73;6.72;;;;;;;;;;5071831;28;20627;-68
2021/07/16 06:57:17;;;;;;;24.08;6.47;;;;;;;;;;5085773;28;20106;-64
2021/07/16 07:00:03;;;;;;;22.88;6.10;;;;;;;;;;5071799;28;20071;-65
2021/07/16 07:02:48;;;;;;;27.13;6.60;;;;;;;;;;5088216;28;20046;-64
2021/07/16 07:05:33;;;;;;;27.77;6.47;;;;;;;;;;5091869;28;20201;-64
2021/07/16 07:08:19;;;;;;;20.83;6.22;;;;;;;;;;5091407;28;20059;-64
2021/07/16 07:11:05;;;;;;;25.23;6.05;;;;;;;;;;5090365;28;20440;-65
2021/07/16 07:13:51;;;;;;;26.15;6.28;;;;;;;;;;5090734;28;20118;-66
2021/07/16 07:16:36;;;;;;;26.35;6.05;;;;;;;;;;5091890;28;20401;-64
2021/07/16 07:19:21;;;;;;;28.83;6.15;;;;;;;;;;5071643;28;20052;-68
2021/07/16 07:22:07;;;;;;;24.45;5.60;;;;;;;;;;5071482;28;20045;-67
2021/07/16 07:24:52;;;;;;;25.33;5.63;;;;;;;;;;5086760;28;20109;-68
2021/07/16 07:27:37;;;;;;;27.52;6.35;;;;;;;;;;5091080;28;20123;-67
2021/07/16 07:30:23;;;;;;;24.90;6.63;;;;;;;;;;5087916;28;20397;-67
2021/07/16 07:33:09;;;;;;;25.08;6.53;;;;;;;;;;5092491;28;20055;-67
2021/07/16 07:35:56;;;;;;;26.70;6.15;;;;;;;;;;5090469;28;20509;-67
2021/07/16 07:38:41;;;;;;;30.52;6.43;;;;;;;;;;5078274;28;20106;-66
2021/07/16 07:41:27;;;;;;;24.88;6.85;;;;;;;;;;5077258;28;20048;-68
2021/07/16 07:44:14;;;;;;;24.08;6.40;;;;;;;;;;5093569;28;20059;-68
2021/07/16 07:47:01;;;;;;;24.10;6.35;;;;;;;;;;5086229;28;20044;-66
2021/07/16 07:49:46;;;;;;;37.00;6.75;;;;;;;;;;5093375;28;20048;-67
2021/07/16 07:52:31;;;;;;;24.48;6.50;;;;;;;;;;5094789;28;20409;-66
2021/07/16 07:55:17;;;;;;;24.50;6.70;;;;;;;;;;5094152;28;20506;-66
2021/07/16 07:58:02;;;;;;;29.67;5.95;;;;;;;;;;5095032;28;20051;-66
2021/07/16 08:00:47;;;;;;;23.98;6.28;;;;;;;;;;5093234;28;20036;-66
2021/07/16 08:03:33;;;;;;;26.88;6.15;;;;;;;;;;5091529;28;20065;-66
2021/07/16 08:06:18;;;;;;;27.90;5.95;;;;;;;;;;5092626;28;20047;-66
2021/07/16 08:09:04;;;;;;;28.20;6.63;;;;;;;;;;5093456;28;20047;-65
2021/07/16 08:11:50;;;;;;;26.35;7.18;;;;;;;;;;5091354;28;20040;-65
2021/07/16 08:14:35;;;;;;;29.48;5.85;;;;;;;;;;5092529;28;20044;-64
2021/07/16 08:17:20;;;;;;;30.55;5.60;;;;;;;;;;5092804;28;20059;-65
2021/07/16 08:20:08;;;;;;;26.90;5.82;;;;;;;;;;5093948;28;20040;-64
2021/07/16 08:22:53;;;;;;;29.95;6.15;;;;;;;;;;5091903;28;20169;-67
2021/07/16 08:25:39;;;;;;;22.45;5.50;;;;;;;;;;5093842;28;20044;-66
2021/07/16 08:28:24;;;;;;;28.98;6.70;;;;;;;;;;5094269;28;20040;-65
2021/07/16 08:31:09;;;;;;;25.33;6.65;;;;;;;;;;5094256;28;20069;-65
2021/07/16 08:33:55;;;;;;;23.95;5.60;;;;;;;;;;5092257;28;20174;-64
2021/07/16 08:36:40;;;;;;;19.73;6.55;;;;;;;;;;5094199;28;20456;-65
2021/07/16 08:39:25;;;;;;;28.17;6.50;;;;;;;;;;5093758;28;20052;-66
2021/07/16 08:42:12;;;;;;;24.65;6.30;;;;;;;;;;5085014;28;20045;-66
2021/07/16 08:44:58;;;;;;;24.27;5.85;;;;;;;;;;5087795;28;20040;-63
2021/07/16 08:47:43;;;;;;;22.50;5.85;;;;;;;;;;5090750;28;20128;-63
2021/07/16 08:50:28;;;;;;;24.02;5.63;;;;;;;;;;5093628;28;20119;-63
2021/07/16 08:53:14;;;;;;;18.33;5.07;;;;;;;;;;5093099;28;20196;-65
2021/07/16 08:55:59;;;;;;;23.20;4.93;;;;;;;;;;5090981;28;20173;-65
2021/07/16 08:58:45;;;;;;;25.35;6.05;;;;;;;;;;5077760;28;20044;-66
2021/07/16 09:01:30;;;;;;;18.27;4.60;;;;;;;;;;5084445;28;20129;-66
2021/07/16 09:04:15;;;;;;;20.40;5.05;;;;;;;;;;5091695;28;20414;-65
2021/07/16 09:07:01;;;;;;;26.25;5.97;;;;;;;;;;5090520;28;20182;-67
2021/07/16 09:09:46;;;;;;;26.55;6.18;;;;;;;;;;5075582;28;20119;-67
2021/07/16 09:12:37;;;;;;;26.33;6.45;;;;;;;;;;5073061;28;20052;-67
2021/07/16 09:15:22;;;;;;;28.42;6.25;;;;;;;;;;5088702;28;20121;-69
2021/07/16 09:18:11;;;;;;;19.95;5.78;;;;;;;;;;5083766;28;20046;-65
2021/07/16 09:21:02;;;;;;;26.30;6.30;;;;;;;;;;5090230;28;20450;-66
2021/07/16 09:23:47;;;;;;;20.52;6.07;;;;;;;;;;5074358;28;20538;-65
2021/07/16 09:26:38;;;;;;;25.75;5.82;;;;;;;;;;5093430;28;20411;-66
2021/07/16 09:29:33;;;;;;;27.85;6.13;;;;;;;;;;5093353;28;20077;-64
2021/07/16 09:32:18;;;;;;;21.25;5.72;;;;;;;;;;5093193;28;20170;-66
2021/07/16 09:35:04;;;;;;;25.52;6.10;;;;;;;;;;5093065;28;20063;-65
2021/07/16 09:37:50;;;;;;;21.50;5.63;;;;;;;;;;5093152;28;20482;-65
2021/07/16 09:40:38;;;;;;;26.15;6.57;;;;;;;;;;5092818;28;20051;-65
2021/07/16 09:43:26;;;;;;;24.55;6.78;;;;;;;;;;5093007;28;20112;-64
2021/07/16 09:46:11;;;;;;;20.33;5.82;;;;;;;;;;5092790;28;20093;-65
2021/07/16 09:49:11;;;;;;;22.08;5.78;;;;;;;;;;5093061;28;20416;-66
2021/07/16 09:51:56;;;;;;;23.98;5.93;;;;;;;;;;5093000;28;20126;-66
2021/07/16 09:55:00;;;;;;;25.27;6.38;;;;;;;;;;5091462;28;20409;-66
2021/07/16 09:57:55;;;;;;;23.02;5.78;;;;;;;;;;5092768;28;20047;-66
2021/07/16 10:00:40;;;;;;;20.00;5.55;;;;;;;;;;5092641;28;20048;-66
2021/07/16 10:03:25;;;;;;;22.80;5.97;;;;;;;;;;5092886;28;20075;-66
2021/07/16 10:06:14;;;;;;;25.17;6.50;;;;;;;;;;5092533;28;20063;-64
2021/07/16 10:08:59;;;;;;;21.20;5.38;;;;;;;;;;5092665;28;20436;-64
2021/07/16 10:11:57;;;;;;;21.88;6.22;;;;;;;;;;5092055;28;20052;-65
2021/07/16 10:14:43;;;;;;;20.65;5.93;;;;;;;;;;5116205;22;20040;-63
2021/07/16 10:17:29;;;;;;;21.65;6.32;;;;;;;;;;5072435;28;20041;-64
2021/07/16 10:20:15;;;;;;;16.88;5.10;;;;;;;;;;5071971;28;20129;-63
2021/07/16 10:23:01;;;;;;;23.15;5.90;;;;;;;;;;5072012;28;20054;-63
2021/07/16 10:25:46;;;;;;;18.27;5.85;;;;;;;;;;5057063;28;20514;-63
2021/07/16 10:28:51;;;;;;;23.88;6.38;;;;;;;;;;5057083;28;20068;-63
2021/07/16 10:31:39;;;;;;;17.02;5.55;;;;;;;;;;5071818;28;20047;-62
2021/07/16 10:34:31;;;;;;;26.75;5.38;;;;;;;;;;5072197;28;20049;-62
2021/07/16 10:37:16;;;;;;;25.70;6.38;;;;;;;;;;5072079;28;20052;-63
2021/07/16 10:40:01;;;;;;;21.67;5.28;;;;;;;;;;5071648;28;20045;-62
2021/07/16 10:42:47;;;;;;;22.60;6.35;;;;;;;;;;5071954;28;20608;-63
2021/07/16 10:45:39;;;;;;;18.95;5.07;;;;;;;;;;5057041;28;20056;-62
2021/07/16 10:48:31;;;;;;;;;;;;;;;;;;5072325;28;20063;-62
2021/07/16 10:51:24;;;;;;;24.48;5.57;;;;;;;;;;5071729;28;20335;-62
2021/07/16 10:54:13;;;;;;;20.63;5.88;;;;;;;;;;5071959;28;20056;-63
2021/07/16 10:57:06;;;;;;;25.63;7.57;;;;;;;;;;5071837;28;20497;-62
2021/07/16 10:59:51;;;;;;;23.23;6.28;;;;;;;;;;5056523;28;20516;-62
2021/07/16 11:02:39;;;;;;;21.85;6.03;;;;;;;;;;5071787;28;20070;-62
2021/07/16 11:05:36;;;;;;;34.72;7.15;;;;;;;;;;5071991;28;20170;-63
2021/07/16 11:08:26;;;;;;;25.63;7.10;;;;;;;;;;5075886;28;20057;-62
2021/07/16 11:11:24;;;;;;;23.77;7.25;;;;;;;;;;5075503;28;20050;-62
2021/07/16 11:14:22;;;;;;;20.75;5.88;;;;;;;;;;5075665;28;20052;-64
2021/07/16 11:17:10;;;;;;;24.70;6.22;;;;;;;;;;5075724;28;20125;-64
2021/07/16 11:20:08;;;;;;;25.42;6.70;;;;;;;;;;5075598;28;20133;-64
2021/07/16 11:22:57;;;;;;;17.95;6.00;;;;;;;;;;5075487;28;20079;-64
2021/07/16 11:25:43;;;;;;;23.92;6.22;;;;;;;;;;5075444;28;20171;-63
2021/07/16 11:28:29;;;;;;;20.13;6.38;;;;;;;;;;5075620;28;20420;-63
2021/07/16 11:31:18;;;;;;;22.05;6.13;;;;;;;;;;5075224;28;20167;-62
2021/07/16 11:34:05;;;;;;;23.08;6.22;;;;;;;;;;5075206;28;20055;-62
2021/07/16 11:36:51;;;;;;;18.65;5.10;;;;;;;;;;5075414;28;20049;-62
2021/07/16 11:39:38;;;;;;;20.75;6.07;;;;;;;;;;5074988;28;20051;-63
2021/07/16 11:42:23;;;;;;;24.35;6.15;;;;;;;;;;5075049;28;20045;-63
2021/07/16 11:45:13;;;;;;;26.98;6.85;;;;;;;;;;5075178;28;20595;-63
2021/07/16 11:47:59;;;;;;;25.73;7.13;;;;;;;;;;5075044;28;20055;-62
2021/07/16 11:50:46;;;;;;;23.40;6.88;;;;;;;;;;5074677;28;20151;-63
2021/07/16 11:53:31;;;;;;;21.02;6.35;;;;;;;;;;5074865;28;20508;-62
2021/07/16 11:56:17;;;;;;;22.42;6.72;;;;;;;;;;5074937;28;20163;-62
2021/07/16 11:59:02;;;;;;;23.17;7.38;;;;;;;;;;5045603;28;20053;-62
2021/07/16 12:02:05;;;;;;;22.15;6.63;;;;;;;;;;5074845;28;20051;-63
2021/07/16 12:04:52;;;;;;;16.92;6.82;;;;;;;;;;5074743;28;20122;-63
2021/07/16 12:07:37;;;;;;;21.77;6.53;;;;;;;;;;5074654;28;20052;-63
2021/07/16 12:10:23;;;;;;;23.98;8.52;;;;;;;;;;5074604;28;20059;-63
2021/07/16 12:13:08;;;;;;;23.88;8.30;;;;;;;;;;5059360;28;20053;-63
2021/07/16 12:16:00;;;;;;;25.27;7.00;;;;;;;;;;5074453;28;20054;-64
2021/07/16 12:18:46;;;;;;;22.05;6.85;;;;;;;;;;5073839;28;20049;-64
2021/07/16 12:21:32;;;;;;;26.10;6.53;;;;;;;;;;5074225;28;20140;-64
2021/07/16 12:24:18;;;;;;;23.90;6.80;;;;;;;;;;5074303;28;20071;-64
2021/07/16 12:27:07;;;;;;;24.50;8.63;;;;;;;;;;5059475;28;20494;-64
2021/07/16 12:29:56;;;;;;;19.27;7.00;;;;;;;;;;5074095;28;20478;-64
2021/07/16 12:32:43;;;;;;;21.92;6.18;;;;;;;;;;5074154;28;20490;-65
2021/07/16 12:35:28;;;;;;;21.38;6.88;;;;;;;;;;5074244;28;20434;-64
2021/07/16 12:38:14;;;;;;;25.02;7.10;;;;;;;;;;5074334;28;20097;-64
2021/07/16 12:41:08;;;;;;;25.63;7.65;;;;;;;;;;5073826;28;20040;-64
2021/07/16 12:43:53;;;;;;;26.13;7.47;;;;;;;;;;5074021;28;20047;-64
2021/07/16 12:46:39;;;;;;;20.20;6.05;;;;;;;;;;5074053;28;20509;-64
2021/07/16 12:49:25;;;;;;;20.30;6.10;;;;;;;;;;5073764;28;20394;-64
2021/07/16 12:52:10;;;;;;;16.25;5.43;;;;;;;;;;5073970;28;20078;-64
2021/07/16 12:55:14;;;;;;;26.17;7.25;;;;;;;;;;5073821;28;20056;-64
2021/07/16 12:58:00;;;;;;;20.20;6.50;;;;;;;;;;5073975;28;20258;-64
2021/07/16 13:00:46;;;;;;;19.90;6.85;;;;;;;;;;5073486;28;20430;-65
2021/07/16 13:03:37;;;;;;;21.52;6.43;;;;;;;;;;5073531;28;20066;-64
2021/07/16 13:06:24;;;;;;;25.07;6.97;;;;;;;;;;5073545;28;20040;-64
2021/07/16 13:09:25;;;;;;;24.10;7.03;;;;;;;;;;5073599;28;20044;-64
2021/07/16 13:12:15;;;;;;;22.55;7.00;;;;;;;;;;5073451;28;20395;-65
2021/07/16 13:15:07;;;;;;;21.77;7.57;;;;;;;;;;5073361;28;20418;-64
2021/07/16 13:17:52;;;;;;;16.75;6.18;;;;;;;;;;5073434;28;20418;-64
2021/07/16 13:20:38;;;;;;;29.77;7.55;;;;;;;;;;5072961;28;20449;-65
2021/07/16 13:23:23;;;;;;;32.78;7.32;;;;;;;;;;5058081;28;20051;-65
2021/07/16 13:26:09;;;;;;;21.58;6.65;;;;;;;;;;5073220;28;20044;-64
2021/07/16 13:28:54;;;;;;;25.80;6.90;;;;;;;;;;5073129;28;20100;-64
2021/07/16 13:31:40;;;;;;;22.10;6.95;;;;;;;;;;5072943;28;20114;-63
2021/07/16 13:34:25;;;;;;;21.40;7.18;;;;;;;;;;5073019;28;20051;-63
2021/07/16 13:37:10;;;;;;;25.33;7.97;;;;;;;;;;5072934;28;20151;-63
2021/07/16 13:39:56;;;;;;;24.30;7.40;;;;;;;;;;5072638;28;20563;-63
2021/07/16 13:42:41;;;;;;;27.75;7.43;;;;;;;;;;5072746;28;20051;-62
2021/07/16 13:45:26;;;;;;;25.95;7.60;;;;;;;;;;5072807;28;20041;-63
2021/07/16 13:48:12;;;;;;;21.08;7.05;;;;;;;;;;5072883;28;20047;-62
2021/07/16 13:50:57;;;;;;;25.40;7.35;;;;;;;;;;5072436;28;20067;-63
2021/07/16 13:53:43;;;;;;;26.70;7.18;;;;;;;;;;5072529;28;20151;-63
2021/07/16 13:56:28;;;;;;;22.60;6.95;;;;;;;;;;5072777;28;20075;-64
2021/07/16 13:59:13;;;;;;;20.52;7.43;;;;;;;;;;5072655;28;20058;-64
2021/07/16 14:01:59;;;;;;;18.40;7.18;;;;;;;;;;5072446;28;20117;-64
2021/07/16 14:04:44;;;;;;;25.67;7.65;;;;;;;;;;5057291;28;20040;-65
2021/07/16 14:07:29;;;;;;;19.92;8.52;;;;;;;;;;5072548;28;20072;-64
2021/07/16 14:10:15;;;;;;;34.35;8.93;;;;;;;;;;5072067;28;20052;-65
2021/07/16 14:13:01;;;;;;;23.75;8.10;;;;;;;;;;5072329;28;20052;-64
2021/07/16 14:15:46;;;;;;;23.05;7.60;;;;;;;;;;5072332;28;20043;-64
2021/07/16 14:18:31;;;;;;;28.05;9.10;;;;;;;;;;5072281;28;20051;-64
2021/07/16 14:21:17;;;;;;;20.27;7.32;;;;;;;;;;5071957;28;20041;-64
2021/07/16 14:24:03;;;;;;;18.00;7.18;;;;;;;;;;5067526;28;20174;-65
2021/07/16 14:26:49;;;;;;;25.55;8.63;;;;;;;;;;5069754;28;20044;-64
2021/07/16 14:29:36;;;;;;;22.67;8.35;;;;;;;;;;5066302;28;20518;-63
2021/07/16 14:32:21;;;;;;;18.42;7.15;;;;;;;;;;5070533;28;20054;-63
2021/07/16 14:35:07;;;;;;;19.25;6.78;;;;;;;;;;5067704;28;20509;-64
2021/07/16 14:37:52;;;;;;;20.58;7.47;;;;;;;;;;5070063;28;20106;-64
2021/07/16 14:40:38;;;;;;;25.48;8.73;;;;;;;;;;5071348;28;20054;-66
2021/07/16 14:43:23;;;;;;;24.20;9.23;;;;;;;;;;5071900;28;20121;-63
2021/07/16 14:46:09;;;;;;;28.70;8.10;;;;;;;;;;5071921;28;20044;-66
2021/07/16 14:48:54;;;;;;;26.30;7.82;;;;;;;;;;5063097;28;20175;-62
2021/07/16 14:51:39;;;;;;;24.13;8.68;;;;;;;;;;5051644;28;20045;-64
2021/07/16 14:54:25;;;;;;;24.35;8.38;;;;;;;;;;5069440;28;20055;-64
2021/07/16 14:57:11;;;;;;;23.15;9.38;;;;;;;;;;5071974;28;20175;-65
2021/07/16 14:59:56;;;;;;;24.90;8.07;;;;;;;;;;5071201;28;20078;-65
2021/07/16 15:02:42;;;;;;;21.98;7.88;;;;;;;;;;5064228;28;20068;-65
2021/07/16 15:05:27;;;;;;;24.55;7.40;;;;;;;;;;5051661;28;20052;-65
2021/07/16 15:08:12;;;;;;;25.70;8.38;;;;;;;;;;5053817;28;20048;-65
2021/07/16 15:10:58;;;;;;;23.50;8.35;;;;;;;;;;5054245;28;20629;-65
2021/07/16 15:13:43;;;;;;;21.92;7.03;;;;;;;;;;5071402;28;20052;-65
2021/07/16 15:16:29;;;;;;;24.30;7.50;;;;;;;;;;5065042;28;20037;-65
2021/07/16 15:19:14;;;;;;;23.23;8.15;;;;;;;;;;5056001;28;20511;-65
2021/07/16 15:22:00;;;;;;;24.38;8.73;;;;;;;;;;5052603;28;20033;-64
2021/07/16 15:24:45;;;;;;;28.30;8.13;;;;;;;;;;5051462;28;20053;-65
2021/07/16 15:27:30;;;;;;;23.23;7.22;;;;;;;;;;5047382;28;20045;-64
2021/07/16 15:30:17;;;;;;;17.67;7.43;;;;;;;;;;5059830;28;20044;-65
2021/07/16 15:33:02;;;;;;;20.65;6.78;;;;;;;;;;5064514;28;20514;-65
2021/07/16 15:35:48;;;;;;;24.20;7.88;;;;;;;;;;5052495;28;20056;-65
2021/07/16 15:38:36;;;;;;;21.08;7.20;;;;;;;;;;5036460;28;20134;-64
2021/07/16 15:41:21;;;;;;;21.20;7.95;;;;;;;;;;5056633;28;20044;-64
2021/07/16 15:44:06;;;;;;;23.10;7.82;;;;;;;;;;5051110;28;20049;-64
2021/07/16 15:46:53;;;;;;;19.65;7.00;;;;;;;;;;5051518;28;20399;-64
2021/07/16 15:49:39;;;;;;;23.50;7.22;;;;;;;;;;5052064;28;20509;-64
2021/07/16 15:52:27;;;;;;;23.17;8.10;;;;;;;;;;5035999;28;20053;-65
2021/07/16 15:55:20;;;;;;;21.65;7.53;;;;;;;;;;5039668;28;20041;-65
2021/07/16 15:58:05;;;;;;;26.80;8.23;;;;;;;;;;5054913;28;20134;-65
2021/07/16 16:00:51;;;;;;;20.77;8.32;;;;;;;;;;5054435;28;20095;-64
2021/07/16 16:03:37;;;;;;;25.60;8.60;;;;;;;;;;5054575;28;20045;-65
2021/07/16 16:06:22;;;;;;;20.65;8.38;;;;;;;;;;5054685;28;20052;-65
2021/07/16 16:09:07;;;;;;;21.88;8.07;;;;;;;;;;5054619;28;20049;-64
2021/07/16 16:11:53;;;;;;;23.77;9.20;;;;;;;;;;5054755;28;20126;-65
2021/07/16 16:14:38;;;;;;;21.92;8.18;;;;;;;;;;5104278;22;20199;-64
2021/07/16 16:17:24;;;;;;;23.17;8.75;;;;;;;;;;5115082;28;20040;-63
2021/07/16 16:20:09;;;;;;;21.55;8.13;;;;;;;;;;5116268;28;20097;-65
2021/07/16 16:22:56;;;;;;;24.90;8.13;;;;;;;;;;5106637;28;20039;-65
2021/07/16 16:25:41;;;;;;;26.25;8.82;;;;;;;;;;5090430;28;20512;-65